TimePST,TemperatureF,Dew PointF,Humidity,Sea Level PressureIn,VisibilityMPH,Wind Direction,Wind SpeedMPH,Gust SpeedMPH,PrecipitationIn,Events,Conditions,WindDirDegrees,DateUTC
12:56 AM,46.0,37.9,73,30.01,10.0,Calm,Calm,-,N/A,,Mostly Cloudy,0,2013-03-07 08:56:00
1:56 AM,45.0,37.0,74,30.00,10.0,Calm,Calm,-,N/A,,Mostly Cloudy,0,2013-03-07 09:56:00
2:56 AM,44.1,37.9,79,29.98,10.0,Calm,Calm,-,N/A,,Mostly Cloudy,0,2013-03-07 10:56:00
3:56 AM,43.0,37.9,82,29.97,10.0,Calm,Calm,-,N/A,,Mostly Cloudy,0,2013-03-07 11:56:00
4:56 AM,45.0,37.9,76,29.97,10.0,SSE,4.6,-,N/A,,Mostly Cloudy,150,2013-03-07 12:56:00
5:56 AM,44.1,37.9,79,29.97,10.0,SSE,6.9,-,N/A,,Mostly Cloudy,150,2013-03-07 13:56:00
6:56 AM,46.0,37.9,73,29.96,10.0,Calm,Calm,-,N/A,,Mostly Cloudy,0,2013-03-07 14:56:00
7:56 AM,46.9,39.0,74,29.96,10.0,East,4.6,-,N/A,,Mostly Cloudy,90,2013-03-07 15:56:00
8:56 AM,48.0,41.0,77,29.97,10.0,SE,8.1,-,N/A,,Overcast,130,2013-03-07 16:56:00
9:56 AM,48.9,42.1,77,29.96,10.0,East,6.9,-,N/A,,Mostly Cloudy,90,2013-03-07 17:56:00
10:56 AM,50.0,41.0,71,29.95,10.0,East,6.9,-,N/A,,Overcast,90,2013-03-07 18:56:00
11:56 AM,53.1,41.0,64,29.94,10.0,NNE,3.5,-,N/A,,Mostly Cloudy,20,2013-03-07 19:56:00
12:56 PM,54.0,41.0,62,29.92,10.0,North,4.6,-,N/A,,Mostly Cloudy,10,2013-03-07 20:56:00
1:56 PM,54.0,36.0,51,29.89,10.0,NNW,3.5,-,N/A,,Overcast,330,2013-03-07 21:56:00
2:56 PM,53.1,39.9,61,29.88,10.0,WNW,9.2,-,N/A,,Overcast,290,2013-03-07 22:56:00
3:56 PM,52.0,39.9,63,29.88,10.0,WNW,11.5,-,N/A,,Overcast,300,2013-03-07 23:56:00
4:56 PM,51.1,42.1,71,29.88,10.0,WNW,10.4,-,0.00,Rain,Light Rain,290,2013-03-08 00:56:00
5:56 PM,51.1,39.9,66,29.88,10.0,West,11.5,-,0.00,,Overcast,260,2013-03-08 01:56:00
6:56 PM,48.9,43.0,80,29.88,10.0,WNW,8.1,-,0.00,,Overcast,290,2013-03-08 02:56:00
7:56 PM,48.9,43.0,80,29.89,8.0,West,9.2,-,0.00,Rain,Light Rain,280,2013-03-08 03:56:00
8:56 PM,48.0,44.1,86,29.89,10.0,West,10.4,-,0.03,Rain,Light Rain,280,2013-03-08 04:56:00
9:39 PM,48.2,44.6,87,29.90,5.0,WNW,9.2,-,0.03,Rain,Light Rain,290,2013-03-08 05:39:00
9:56 PM,48.0,44.1,86,29.90,8.0,West,12.7,-,0.04,Rain,Light Rain,280,2013-03-08 05:56:00
10:56 PM,48.0,43.0,83,29.89,10.0,West,15.0,-,0.01,Rain,Light Rain,280,2013-03-08 06:56:00
11:56 PM,48.0,43.0,83,29.88,10.0,West,12.7,-,0.00,,Overcast,270,2013-03-08 07:56:00